Wetterdaten: Woche 08.05.23 - 14.05.23 (KW19)
Datum Zeit Temp. Aussen Temp. o. S. Temp +5cm Feuchte Auss Luftdruck Regen Sonnenschein Regendauer Solar Windben Empfang
08.05.2023 00:00 15,6 C 14,4 C 11,0 C 95 % 1020,1 hPa 0,0 l/m 0,00 h 0,00 h 0 W/m 0,0 km/h (0 Bft) 96,83 %
08.05.2023 01:00 15,3 C 13,9 C 10,6 C 95 % 1020,2 hPa 0,0 l/m 0,00 h 0,03 h 0 W/m 0,0 km/h (0 Bft) 98,65 %
08.05.2023 02:00 15,0 C 13,9 C 10,6 C 96 % 1020,1 hPa 0,0 l/m 0,00 h 0,00 h 0 W/m 0,0 km/h (0 Bft) 96,52 %
08.05.2023 03:00 14,8 C 13,4 C 10,6 C 97 % 1020,3 hPa 0,0 l/m 0,00 h 0,00 h 0 W/m 0,0 km/h (0 Bft) 97,19 %
08.05.2023 04:00 14,4 C 13,3 C 10,2 C 97 % 1020,6 hPa 0,0 l/m 0,00 h 0,00 h 0 W/m 0,0 km/h (0 Bft) 99,17 %
08.05.2023 05:00 14,2 C 12,9 C 10,0 C 97 % 1020,5 hPa 0,0 l/m 0,00 h 0,00 h 0 W/m 0,0 km/h (0 Bft) 94,88 %
08.05.2023 06:00 13,9 C 13,0 C 10,1 C 98 % 1020,6 hPa 0,2 l/m 0,00 h 0,00 h 16 W/m 0,1 km/h (0 Bft) 99,40 %
08.05.2023 07:00 13,8 C 13,3 C 10,6 C 98 % 1020,9 hPa 0,0 l/m 0,00 h 0,00 h 40 W/m 4,7 km/h (1 Bft) 97,53 %
08.05.2023 08:00 14,6 C 15,4 C 11,6 C 98 % 1021,3 hPa 0,0 l/m 0,40 h 0,00 h 205 W/m 9,4 km/h (2 Bft) 95,86 %
08.05.2023 09:00 15,8 C 16,6 C 12,9 C 97 % 1021,6 hPa 0,0 l/m 0,00 h 0,00 h 170 W/m 8,3 km/h (2 Bft) 96,93 %
08.05.2023 10:00 17,1 C 18,6 C 14,6 C 92 % 1021,6 hPa 0,0 l/m 0,43 h 0,00 h 414 W/m 9,3 km/h (2 Bft) 98,93 %
08.05.2023 11:00 19,2 C 20,2 C 15,9 C 82 % 1021,6 hPa 0,0 l/m 0,57 h 0,00 h 398 W/m 12,2 km/h (3 Bft) 95,10 %
08.05.2023 12:00 19,8 C 21,7 C 17,3 C 80 % 1021,5 hPa 0,0 l/m 0,82 h 0,00 h 494 W/m 10,8 km/h (2 Bft) 98,93 %
08.05.2023 13:00 21,4 C 24,8 C 18,8 C 75 % 1021,1 hPa 0,0 l/m 0,70 h 0,00 h 566 W/m 10,9 km/h (2 Bft) 96,67 %
08.05.2023 14:00 22,6 C 26,7 C 18,5 C 70 % 1020,8 hPa 0,0 l/m 1,00 h 0,00 h 758 W/m 15,9 km/h (3 Bft) 98,46 %
08.05.2023 15:00 22,9 C 25,6 C 17,8 C 68 % 1020,5 hPa 0,0 l/m 0,60 h 0,00 h 571 W/m 12,7 km/h (3 Bft) 96,37 %
08.05.2023 16:00 21,7 C 21,5 C 17,0 C 72 % 1020,3 hPa 0,0 l/m 0,03 h 0,00 h 216 W/m 11,7 km/h (2 Bft) 98,51 %
08.05.2023 17:00 20,8 C 20,4 C 16,4 C 74 % 1020,2 hPa 0,0 l/m 0,00 h 0,00 h 195 W/m 10,6 km/h (2 Bft) 98,72 %
08.05.2023 18:00 20,3 C 19,8 C 15,8 C 77 % 1019,9 hPa 0,0 l/m 0,00 h 0,00 h 134 W/m 7,2 km/h (2 Bft) 95,67 %
08.05.2023 19:00 19,6 C 18,8 C 15,0 C 79 % 1019,8 hPa 0,0 l/m 0,00 h 0,00 h 76 W/m 4,4 km/h (1 Bft) 98,72 %
08.05.2023 20:00 19,1 C 17,9 C 14,2 C 82 % 1019,8 hPa 0,0 l/m 0,00 h 0,00 h 25 W/m 0,0 km/h (0 Bft) 98,09 %
08.05.2023 21:00 18,6 C 17,5 C 13,5 C 84 % 1019,7 hPa 0,0 l/m 0,00 h 0,00 h 0 W/m 0,1 km/h (0 Bft) 95,35 %
08.05.2023 22:00 17,8 C 16,6 C 13,1 C 86 % 1019,6 hPa 0,0 l/m 0,00 h 0,00 h 0 W/m 0,1 km/h (0 Bft) 98,96 %
08.05.2023 23:00 17,0 C 16,0 C 12,7 C 88 % 1019,3 hPa 0,0 l/m 0,00 h 0,00 h 0 W/m 0,0 km/h (0 Bft) 95,42 %
09.05.2023 00:00 16,6 C 15,6 C 12,3 C 90 % 1018,9 hPa 0,0 l/m 0,00 h 0,00 h 0 W/m 0,1 km/h (0 Bft) 96,90 %
09.05.2023 01:00 16,2 C 15,2 C 12,0 C 91 % 1018,4 hPa 0,0 l/m 0,00 h 0,00 h 0 W/m 0,2 km/h (0 Bft) 98,17 %
09.05.2023 02:00 15,9 C 15,0 C 11,7 C 92 % 1017,8 hPa 0,0 l/m 0,00 h 0,00 h 0 W/m 0,0 km/h (0 Bft) 97,56 %
09.05.2023 03:00 15,9 C 15,0 C 11,7 C 94 % 1017,2 hPa 0,0 l/m 0,00 h 0,00 h 0 W/m 0,0 km/h (0 Bft) 96,70 %
09.05.2023 04:00 15,8 C 15,0 C 11,7 C 94 % 1017,0 hPa 0,0 l/m 0,00 h 0,00 h 0 W/m 0,0 km/h (0 Bft) 98,43 %
09.05.2023 05:00 15,6 C 14,8 C 11,7 C 94 % 1016,7 hPa 0,0 l/m 0,00 h 0,00 h 0 W/m 0,0 km/h (0 Bft) 96,73 %
09.05.2023 06:00 15,5 C 14,4 C 11,6 C 94 % 1016,3 hPa 0,0 l/m 0,00 h 0,00 h 14 W/m 0,0 km/h (0 Bft) 97,06 %
09.05.2023 07:00 15,5 C 15,3 C 11,9 C 94 % 1015,8 hPa 0,0 l/m 0,00 h 0,00 h 76 W/m 0,0 km/h (0 Bft) 96,23 %
09.05.2023 08:00 16,4 C 16,6 C 12,8 C 93 % 1015,2 hPa 0,0 l/m 0,30 h 0,00 h 138 W/m 3,1 km/h (1 Bft) 96,94 %
09.05.2023 09:00 17,2 C 18,0 C 13,9 C 90 % 1014,6 hPa 0,0 l/m 0,20 h 0,00 h 247 W/m 10,3 km/h (2 Bft) 98,22 %
09.05.2023 10:00 19,4 C 21,4 C 16,4 C 78 % 1013,8 hPa 0,0 l/m 1,00 h 0,00 h 482 W/m 14,7 km/h (3 Bft) 98,92 %
09.05.2023 11:00 20,7 C 22,0 C 17,4 C 73 % 1013,0 hPa 0,0 l/m 0,87 h 0,00 h 475 W/m 14,1 km/h (3 Bft) 94,95 %
09.05.2023 12:00 21,2 C 22,1 C 17,7 C 70 % 1012,3 hPa 0,0 l/m 0,37 h 0,00 h 356 W/m 14,6 km/h (3 Bft) 99,00 %
09.05.2023 13:00 20,3 C 19,5 C 15,4 C 76 % 1011,5 hPa 0,4 l/m 0,00 h 0,20 h 139 W/m 9,9 km/h (2 Bft) 97,62 %
09.05.2023 14:00 18,4 C 17,2 C 12,6 C 90 % 1010,9 hPa 2,0 l/m 0,00 h 0,43 h 163 W/m 7,7 km/h (2 Bft) 96,13 %
09.05.2023 15:00 17,2 C 16,9 C 12,3 C 94 % 1010,7 hPa 0,4 l/m 0,00 h 0,60 h 158 W/m 10,1 km/h (2 Bft) 97,80 %
09.05.2023 16:00 16,9 C 16,5 C 12,1 C 95 % 1010,2 hPa 0,4 l/m 0,00 h 0,77 h 146 W/m 8,6 km/h (2 Bft) 97,61 %
09.05.2023 17:00 16,2 C 15,7 C 11,5 C 95 % 1009,8 hPa 0,4 l/m 0,00 h 1,00 h 97 W/m 8,4 km/h (2 Bft) 96,53 %
09.05.2023 18:00 15,2 C 14,5 C 10,8 C 96 % 1009,3 hPa 0,4 l/m 0,00 h 1,00 h 52 W/m 7,5 km/h (2 Bft) 98,08 %
09.05.2023 19:00 14,9 C 14,0 C 10,6 C 96 % 1009,0 hPa 0,8 l/m 0,00 h 1,00 h 21 W/m 2,1 km/h (1 Bft) 98,45 %
09.05.2023 20:00 14,7 C 13,9 C 10,6 C 97 % 1008,8 hPa 1,0 l/m 0,00 h 1,00 h 9 W/m 1,3 km/h (1 Bft) 95,02 %
09.05.2023 21:00 13,9 C 12,9 C 9,5 C 97 % 1008,9 hPa 0,8 l/m 0,00 h 1,00 h 0 W/m 6,0 km/h (2 Bft) 99,15 %
09.05.2023 22:00 13,6 C 12,7 C 9,4 C 97 % 1008,8 hPa 0,8 l/m 0,00 h 1,00 h 0 W/m 6,0 km/h (2 Bft) 95,66 %
09.05.2023 23:00 13,3 C 12,5 C 9,4 C 98 % 1008,8 hPa 0,6 l/m 0,00 h 1,00 h 0 W/m 5,4 km/h (1 Bft) 96,86 %
10.05.2023 00:00 13,2 C 12,2 C 9,4 C 98 % 1008,7 hPa 0,6 l/m 0,00 h 1,00 h 0 W/m 1,6 km/h (1 Bft) 81,58 %
10.05.2023 01:00 13,2 C 12,2 C 9,4 C 99 % 1008,7 hPa 0,4 l/m 0,00 h 1,00 h 0 W/m 8,0 km/h (2 Bft) 94,59 %
10.05.2023 02:00 13,0 C 12,2 C 9,4 C 99 % 1008,7 hPa 0,4 l/m 0,00 h 1,00 h 0 W/m 6,7 km/h (2 Bft) 97,30 %
10.05.2023 03:00 12,7 C 11,9 C 9,0 C 99 % 1008,8 hPa 0,4 l/m 0,00 h 0,42 h 0 W/m 0,0 km/h (0 Bft) 99,05 %
10.05.2023 04:00 12,6 C 11,8 C 9,0 C 99 % 1008,9 hPa 0,2 l/m 0,00 h 0,00 h 0 W/m 0,0 km/h (0 Bft) 93,71 %
10.05.2023 05:00 12,6 C 11,9 C 9,1 C 99 % 1009,1 hPa 0,2 l/m 0,00 h 0,08 h 0 W/m 3,7 km/h (1 Bft) 98,39 %
10.05.2023 06:00 12,8 C 12,2 C 9,4 C 99 % 1009,4 hPa 0,2 l/m 0,00 h 0,00 h 6 W/m 4,3 km/h (1 Bft) 99,78 %
10.05.2023 07:00 12,8 C 12,2 C 9,4 C 99 % 1009,7 hPa 0,0 l/m 0,00 h 0,00 h 20 W/m 9,4 km/h (2 Bft) 99,49 %
10.05.2023 08:00 12,8 C 12,4 C 9,4 C 99 % 1010,2 hPa 0,2 l/m 0,00 h 0,00 h 48 W/m 7,5 km/h (2 Bft) 99,19 %
10.05.2023 09:00 13,2 C 13,5 C 9,8 C 99 % 1010,6 hPa 0,0 l/m 0,00 h 0,00 h 135 W/m 11,3 km/h (2 Bft) 99,05 %
10.05.2023 10:00 13,5 C 13,8 C 9,9 C 97 % 1011,1 hPa 0,2 l/m 0,00 h 0,00 h 164 W/m 11,3 km/h (2 Bft) 99,93 %
10.05.2023 11:00 14,1 C 14,0 C 10,6 C 92 % 1011,7 hPa 0,0 l/m 0,00 h 0,00 h 138 W/m 15,6 km/h (3 Bft) 97,81 %
10.05.2023 12:00 14,3 C 14,6 C 11,2 C 90 % 1011,9 hPa 0,0 l/m 0,00 h 0,00 h 184 W/m 12,9 km/h (3 Bft) 100,00 %
10.05.2023 13:00 14,6 C 14,7 C 11,3 C 89 % 1012,2 hPa 0,0 l/m 0,00 h 0,00 h 183 W/m 12,6 km/h (3 Bft) 99,05 %
10.05.2023 14:00 16,1 C 16,9 C 12,9 C 85 % 1012,3 hPa 0,0 l/m 0,17 h 0,00 h 354 W/m 11,8 km/h (2 Bft) 99,93 %
10.05.2023 15:00 17,0 C 18,4 C 13,5 C 81 % 1012,5 hPa 0,0 l/m 0,50 h 0,00 h 421 W/m 14,5 km/h (3 Bft) 99,27 %
10.05.2023 16:00 18,0 C 19,2 C 13,9 C 77 % 1012,3 hPa 0,0 l/m 0,67 h 0,00 h 368 W/m 15,8 km/h (3 Bft) 99,85 %
10.05.2023 17:00 17,6 C 17,7 C 13,2 C 78 % 1012,4 hPa 0,2 l/m 0,42 h 0,00 h 218 W/m 15,3 km/h (3 Bft) 99,85 %
10.05.2023 18:00 15,3 C 14,3 C 10,8 C 83 % 1013,1 hPa 0,0 l/m 0,00 h 0,00 h 34 W/m 11,6 km/h (2 Bft) 98,83 %
10.05.2023 19:00 14,0 C 13,2 C 9,7 C 90 % 1013,4 hPa 0,0 l/m 0,00 h 0,00 h 43 W/m 7,5 km/h (2 Bft) 99,34 %
10.05.2023 20:00 13,9 C 13,1 C 10,0 C 93 % 1013,6 hPa 0,0 l/m 0,00 h 0,00 h 20 W/m 3,2 km/h (1 Bft) 100,00 %
10.05.2023 21:00 13,8 C 13,2 C 10,0 C 94 % 1014,0 hPa 0,0 l/m 0,00 h 0,00 h 0 W/m 0,8 km/h (0 Bft) 98,39 %
10.05.2023 22:00 13,6 C 12,7 C 9,5 C 93 % 1014,2 hPa 0,0 l/m 0,00 h 0,00 h 0 W/m 0,0 km/h (0 Bft) 98,10 %
10.05.2023 23:00 13,4 C 12,7 C 9,4 C 93 % 1014,2 hPa 0,0 l/m 0,00 h 0,00 h 0 W/m 0,0 km/h (0 Bft) 99,56 %
11.05.2023 00:00 13,3 C 12,3 C 9,2 C 93 % 1014,4 hPa 0,0 l/m 0,00 h 0,00 h 0 W/m 1,9 km/h (1 Bft) 99,27 %
11.05.2023 01:00 12,9 C 12,2 C 8,9 C 94 % 1014,5 hPa 0,0 l/m 0,00 h 0,00 h 0 W/m 4,8 km/h (1 Bft) 96,93 %
11.05.2023 02:00 12,8 C 12,1 C 8,8 C 94 % 1014,5 hPa 0,0 l/m 0,00 h 0,17 h 0 W/m 4,6 km/h (1 Bft) 97,59 %
11.05.2023 03:00 12,6 C 11,5 C 8,3 C 95 % 1014,6 hPa 0,0 l/m 0,00 h 0,92 h 0 W/m 7,0 km/h (2 Bft) 99,85 %
11.05.2023 04:00 12,4 C 11,4 C 8,3 C 97 % 1014,6 hPa 0,0 l/m 0,00 h 0,75 h 0 W/m 4,6 km/h (1 Bft) 96,86 %
11.05.2023 05:00 12,1 C 11,1 C 8,1 C 97 % 1014,5 hPa 0,2 l/m 0,00 h 0,00 h 0 W/m 2,4 km/h (1 Bft) 100,00 %
11.05.2023 06:00 12,1 C 11,3 C 8,3 C 98 % 1014,5 hPa 0,0 l/m 0,00 h 0,00 h 15 W/m 5,1 km/h (1 Bft) 99,78 %
11.05.2023 07:00 12,4 C 12,1 C 8,9 C 98 % 1015,0 hPa 0,0 l/m 0,00 h 0,00 h 35 W/m 2,1 km/h (1 Bft) 98,54 %
11.05.2023 08:00 12,5 C 12,5 C 9,0 C 98 % 1015,3 hPa 0,0 l/m 0,00 h 0,00 h 90 W/m 0,0 km/h (0 Bft) 100,00 %
11.05.2023 09:00 13,3 C 14,5 C 9,7 C 98 % 1015,4 hPa 0,0 l/m 0,42 h 0,00 h 238 W/m 2,1 km/h (1 Bft) 99,56 %
11.05.2023 10:00 14,6 C 15,9 C 11,3 C 92 % 1015,5 hPa 0,0 l/m 0,58 h 0,00 h 317 W/m 10,7 km/h (2 Bft) 98,17 %
11.05.2023 11:00 15,1 C 16,2 C 12,1 C 87 % 1015,6 hPa 0,0 l/m 0,33 h 0,00 h 359 W/m 11,6 km/h (2 Bft) 100,00 %
11.05.2023 12:00 16,1 C 17,0 C 13,1 C 82 % 1015,5 hPa 0,0 l/m 0,08 h 0,00 h 343 W/m 12,1 km/h (2 Bft) 98,76 %
11.05.2023 13:00 16,7 C 17,5 C 13,2 C 80 % 1015,4 hPa 0,0 l/m 0,17 h 0,00 h 363 W/m 11,8 km/h (2 Bft) 99,49 %
11.05.2023 14:00 17,4 C 18,8 C 14,0 C 78 % 1015,2 hPa 0,0 l/m 0,50 h 0,00 h 417 W/m 14,0 km/h (3 Bft) 99,56 %
11.05.2023 15:00 18,1 C 18,7 C 14,0 C 76 % 1014,9 hPa 0,0 l/m 0,58 h 0,00 h 323 W/m 12,3 km/h (3 Bft) 99,78 %
11.05.2023 16:00 17,3 C 17,6 C 13,2 C 80 % 1014,8 hPa 0,0 l/m 0,08 h 0,00 h 281 W/m 14,2 km/h (3 Bft) 99,63 %
11.05.2023 17:00 17,1 C 16,8 C 12,7 C 79 % 1014,8 hPa 0,0 l/m 0,00 h 0,00 h 134 W/m 12,1 km/h (2 Bft) 98,83 %
11.05.2023 18:00 16,5 C 15,8 C 11,8 C 82 % 1014,9 hPa 0,0 l/m 0,00 h 0,08 h 80 W/m 12,1 km/h (2 Bft) 99,78 %
11.05.2023 19:00 14,9 C 13,9 C 9,6 C 90 % 1015,0 hPa 0,0 l/m 0,00 h 0,92 h 39 W/m 5,1 km/h (1 Bft) 99,93 %
11.05.2023 20:00 14,3 C 13,6 C 9,4 C 94 % 1015,1 hPa 0,0 l/m 0,00 h 0,08 h 14 W/m 2,1 km/h (1 Bft) 98,24 %
11.05.2023 21:00 14,2 C 13,1 C 9,4 C 95 % 1015,5 hPa 0,0 l/m 0,00 h 0,50 h 0 W/m 0,8 km/h (0 Bft) 99,85 %
11.05.2023 22:00 13,9 C 12,8 C 9,4 C 96 % 1015,8 hPa 0,0 l/m 0,00 h 0,83 h 0 W/m 1,3 km/h (1 Bft) 99,12 %
11.05.2023 23:00 13,8 C 12,8 C 9,4 C 97 % 1015,6 hPa 0,0 l/m 0,00 h 0,92 h 0 W/m 3,5 km/h (1 Bft) 99,42 %
12.05.2023 00:00 13,6 C 12,8 C 9,2 C 97 % 1015,4 hPa 0,0 l/m 0,00 h 1,00 h 0 W/m 5,6 km/h (1 Bft) 98,54 %
12.05.2023 01:00 13,5 C 12,5 C 9,4 C 98 % 1015,1 hPa 0,0 l/m 0,00 h 1,00 h 0 W/m 3,0 km/h (1 Bft) 98,90 %
12.05.2023 02:00 13,3 C 12,2 C 9,2 C 98 % 1014,7 hPa 0,0 l/m 0,00 h 0,75 h 0 W/m 10,5 km/h (2 Bft) 100,00 %
12.05.2023 03:00 12,7 C 11,8 C 8,8 C 98 % 1014,2 hPa 2,2 l/m 0,00 h 1,00 h 0 W/m 15,0 km/h (3 Bft) 97,44 %
12.05.2023 04:00 12,2 C 11,2 C 8,6 C 99 % 1013,8 hPa 0,0 l/m 0,00 h 0,25 h 0 W/m 10,2 km/h (2 Bft) 98,17 %
12.05.2023 05:00 12,3 C 11,7 C 8,9 C 99 % 1013,8 hPa 0,0 l/m 0,00 h 0,00 h 0 W/m 1,1 km/h (0 Bft) 99,34 %
12.05.2023 06:00 12,4 C 11,7 C 8,9 C 99 % 1014,3 hPa 0,0 l/m 0,00 h 0,00 h 19 W/m 1,9 km/h (1 Bft) 98,54 %
12.05.2023 07:00 12,7 C 12,3 C 9,1 C 99 % 1015,1 hPa 0,0 l/m 0,00 h 0,00 h 57 W/m 4,8 km/h (1 Bft) 99,93 %
12.05.2023 08:00 13,3 C 14,8 C 9,6 C 99 % 1015,8 hPa 0,0 l/m 0,58 h 0,00 h 210 W/m 14,0 km/h (3 Bft) 99,12 %
12.05.2023 09:00 14,8 C 18,6 C 11,0 C 94 % 1016,2 hPa 0,2 l/m 0,83 h 0,08 h 398 W/m 15,6 km/h (3 Bft) 98,17 %
12.05.2023 10:00 16,2 C 18,3 C 13,2 C 84 % 1016,6 hPa 0,0 l/m 0,67 h 0,00 h 391 W/m 16,6 km/h (3 Bft) 100,00 %
12.05.2023 11:00 16,8 C 19,4 C 14,1 C 81 % 1017,0 hPa 0,0 l/m 0,67 h 0,08 h 574 W/m 16,6 km/h (3 Bft) 98,90 %
12.05.2023 12:00 19,3 C 22,6 C 17,3 C 73 % 1017,2 hPa 0,0 l/m 1,00 h 0,00 h 622 W/m 16,6 km/h (3 Bft) 99,20 %
12.05.2023 13:00 18,7 C 20,0 C 14,8 C 77 % 1017,3 hPa 0,0 l/m 0,33 h 0,00 h 317 W/m 14,2 km/h (3 Bft) 99,85 %
12.05.2023 14:00 19,0 C 21,2 C 15,5 C 74 % 1017,5 hPa 0,0 l/m 0,50 h 0,00 h 456 W/m 17,4 km/h (3 Bft) 100,00 %
12.05.2023 15:00 19,6 C 20,5 C 15,7 C 72 % 1017,6 hPa 0,0 l/m 0,25 h 0,00 h 360 W/m 17,4 km/h (3 Bft) 99,27 %
12.05.2023 16:00 19,6 C 20,0 C 15,5 C 73 % 1017,4 hPa 0,0 l/m 0,17 h 0,00 h 224 W/m 13,7 km/h (3 Bft) 99,93 %
12.05.2023 17:00 19,7 C 19,9 C 15,6 C 72 % 1017,6 hPa 0,0 l/m 0,08 h 0,00 h 186 W/m 12,9 km/h (3 Bft) 99,34 %
12.05.2023 18:00 18,4 C 17,7 C 13,7 C 67 % 1017,8 hPa 0,0 l/m 0,00 h 0,00 h 62 W/m 10,5 km/h (2 Bft) 98,17 %
12.05.2023 19:00 17,6 C 17,1 C 13,1 C 71 % 1018,0 hPa 0,0 l/m 0,00 h 0,00 h 65 W/m 7,3 km/h (2 Bft) 95,55 %
12.05.2023 20:00 17,1 C 15,7 C 12,1 C 75 % 1018,4 hPa 0,0 l/m 0,00 h 0,00 h 22 W/m 2,1 km/h (1 Bft) 97,39 %
12.05.2023 21:00 15,8 C 14,2 C 10,8 C 80 % 1018,8 hPa 0,0 l/m 0,00 h 0,00 h 6 W/m 0,2 km/h (0 Bft) 97,23 %
12.05.2023 22:00 14,8 C 13,1 C 9,6 C 85 % 1019,3 hPa 0,0 l/m 0,00 h 0,00 h 0 W/m 1,2 km/h (1 Bft) 97,13 %
12.05.2023 23:00 14,1 C 12,6 C 9,2 C 86 % 1019,7 hPa 0,0 l/m 0,00 h 0,00 h 0 W/m 1,0 km/h (0 Bft) 97,74 %
13.05.2023 00:00 13,0 C 11,4 C 8,0 C 89 % 1019,8 hPa 0,0 l/m 0,00 h 0,00 h 0 W/m 0,2 km/h (0 Bft) 93,78 %
13.05.2023 01:00 12,2 C 10,7 C 7,6 C 91 % 1019,6 hPa 0,0 l/m 0,00 h 0,00 h 0 W/m 0,4 km/h (0 Bft) 97,03 %
13.05.2023 02:00 11,6 C 10,4 C 7,4 C 93 % 1019,6 hPa 0,0 l/m 0,00 h 0,00 h 0 W/m 0,5 km/h (0 Bft) 96,50 %
13.05.2023 03:00 11,5 C 11,0 C 7,7 C 94 % 1019,5 hPa 0,0 l/m 0,00 h 0,00 h 0 W/m 1,8 km/h (1 Bft) 98,79 %
13.05.2023 04:00 11,3 C 10,1 C 7,1 C 93 % 1019,6 hPa 0,0 l/m 0,00 h 0,00 h 0 W/m 0,5 km/h (0 Bft) 97,63 %
13.05.2023 05:00 10,8 C 10,0 C 7,1 C 93 % 1019,6 hPa 0,0 l/m 0,00 h 0,00 h 5 W/m 1,1 km/h (0 Bft) 97,37 %
13.05.2023 06:00 10,8 C 10,6 C 7,4 C 93 % 1019,7 hPa 0,0 l/m 0,00 h 0,00 h 25 W/m 1,5 km/h (1 Bft) 96,66 %
13.05.2023 07:00 11,4 C 11,5 C 8,1 C 93 % 1020,0 hPa 0,0 l/m 0,00 h 0,00 h 42 W/m 3,8 km/h (1 Bft) 98,41 %
13.05.2023 08:00 13,5 C 16,9 C 9,7 C 86 % 1020,3 hPa 0,0 l/m 0,80 h 0,00 h 288 W/m 6,4 km/h (2 Bft) 98,40 %
13.05.2023 09:00 17,2 C 22,2 C 14,7 C 75 % 1020,5 hPa 0,0 l/m 1,00 h 0,00 h 501 W/m 8,0 km/h (2 Bft) 96,88 %
13.05.2023 10:00 19,5 C 22,3 C 16,0 C 67 % 1020,4 hPa 0,0 l/m 1,00 h 0,00 h 646 W/m 9,9 km/h (2 Bft) 97,01 %
13.05.2023 11:00 20,8 C 24,0 C 17,1 C 60 % 1020,3 hPa 0,0 l/m 0,90 h 0,00 h 655 W/m 13,0 km/h (3 Bft) 96,16 %
13.05.2023 12:00 22,9 C 29,2 C 23,5 C 57 % 1019,8 hPa 0,0 l/m 1,00 h 0,00 h 848 W/m 13,3 km/h (3 Bft) 99,64 %
13.05.2023 13:00 24,3 C 31,1 C 21,4 C 50 % 1019,4 hPa 0,0 l/m 1,00 h 0,00 h 904 W/m 16,0 km/h (3 Bft) 97,15 %
13.05.2023 14:00 24,7 C 29,5 C 19,7 C 47 % 1019,3 hPa 0,0 l/m 0,70 h 0,00 h 714 W/m 15,3 km/h (3 Bft) 96,94 %
13.05.2023 15:00 23,3 C 24,6 C 18,4 C 49 % 1019,3 hPa 0,0 l/m 0,30 h 0,00 h 355 W/m 11,4 km/h (2 Bft) 98,36 %
13.05.2023 16:00 22,3 C 22,0 C 17,4 C 55 % 1019,0 hPa 0,0 l/m 0,00 h 0,13 h 167 W/m 10,1 km/h (2 Bft) 97,87 %
13.05.2023 17:00 20,8 C 20,9 C 14,1 C 64 % 1019,1 hPa 0,2 l/m 0,33 h 0,13 h 220 W/m 8,0 km/h (2 Bft) 96,94 %
13.05.2023 18:00 17,8 C 16,2 C 10,6 C 74 % 1019,6 hPa 0,6 l/m 0,00 h 0,37 h 40 W/m 10,7 km/h (2 Bft) 99,21 %
13.05.2023 19:00 16,3 C 15,6 C 10,1 C 82 % 1019,3 hPa 0,0 l/m 0,00 h 0,00 h 50 W/m 3,3 km/h (1 Bft) 95,29 %
13.05.2023 20:00 16,0 C 14,9 C 10,6 C 83 % 1019,2 hPa 0,0 l/m 0,00 h 0,00 h 23 W/m 2,2 km/h (1 Bft) 97,71 %
13.05.2023 21:00 15,3 C 13,8 C 10,3 C 87 % 1019,4 hPa 0,0 l/m 0,00 h 0,00 h 0 W/m 0,2 km/h (0 Bft) 98,93 %
13.05.2023 22:00 14,1 C 12,2 C 9,0 C 90 % 1019,5 hPa 0,0 l/m 0,00 h 0,00 h 0 W/m 0,4 km/h (0 Bft) 94,75 %
13.05.2023 23:00 13,1 C 11,8 C 8,5 C 92 % 1019,6 hPa 0,0 l/m 0,00 h 0,00 h 0 W/m 1,4 km/h (1 Bft) 97,71 %
14.05.2023 00:00 12,8 C 12,2 C 8,9 C 94 % 1019,4 hPa 0,0 l/m 0,00 h 0,00 h 0 W/m 2,0 km/h (1 Bft) 97,23 %
14.05.2023 01:00 12,8 C 11,9 C 8,7 C 94 % 1019,1 hPa 0,0 l/m 0,00 h 0,00 h 0 W/m 0,0 km/h (0 Bft) 98,63 %
14.05.2023 02:00 12,4 C 11,2 C 8,1 C 94 % 1018,8 hPa 0,0 l/m 0,00 h 0,00 h 0 W/m 0,0 km/h (0 Bft) 96,06 %
14.05.2023 03:00 11,6 C 10,4 C 7,4 C 94 % 1018,6 hPa 0,0 l/m 0,00 h 0,00 h 0 W/m 2,7 km/h (1 Bft) 97,10 %
14.05.2023 04:00 10,8 C 9,3 C 6,6 C 94 % 1018,3 hPa 0,0 l/m 0,00 h 0,00 h 0 W/m 0,2 km/h (0 Bft) 97,81 %
14.05.2023 05:00 9,9 C 8,4 C 5,9 C 94 % 1018,2 hPa 0,0 l/m 0,00 h 0,00 h 5 W/m 0,0 km/h (0 Bft) 98,61 %
14.05.2023 06:00 9,5 C 8,6 C 5,9 C 95 % 1018,1 hPa 0,0 l/m 0,00 h 0,00 h 20 W/m 0,0 km/h (0 Bft) 94,55 %
14.05.2023 07:00 9,9 C 10,0 C 6,9 C 96 % 1018,1 hPa 0,0 l/m 0,00 h 0,00 h 42 W/m 0,1 km/h (0 Bft) 98,44 %
14.05.2023 08:00 11,8 C 16,9 C 8,6 C 97 % 1018,2 hPa 0,0 l/m 0,93 h 0,00 h 313 W/m 2,2 km/h (1 Bft) 97,92 %
14.05.2023 09:00 15,4 C 19,8 C 13,0 C 86 % 1018,2 hPa 0,0 l/m 0,63 h 0,00 h 383 W/m 3,5 km/h (1 Bft) 97,23 %
14.05.2023 10:00 18,0 C 21,3 C 15,1 C 77 % 1018,1 hPa 0,0 l/m 1,00 h 0,00 h 671 W/m 6,3 km/h (2 Bft) 96,56 %
14.05.2023 11:00 20,2 C 24,2 C 15,9 C 68 % 1017,8 hPa 0,0 l/m 1,00 h 0,00 h 775 W/m 6,4 km/h (2 Bft) 96,37 %
14.05.2023 12:00 21,5 C 24,7 C 20,6 C 64 % 1017,3 hPa 0,0 l/m 0,67 h 0,00 h 597 W/m 9,9 km/h (2 Bft) 97,42 %
14.05.2023 13:00 20,6 C 20,9 C 16,7 C 62 % 1016,8 hPa 0,0 l/m 0,13 h 0,00 h 223 W/m 9,0 km/h (2 Bft) 99,36 %
14.05.2023 14:00 22,5 C 28,5 C 17,8 C 49 % 1016,3 hPa 0,0 l/m 0,90 h 0,00 h 816 W/m 11,2 km/h (2 Bft) 95,95 %
14.05.2023 15:00 24,0 C 28,1 C 18,2 C 45 % 1015,7 hPa 0,0 l/m 0,90 h 0,00 h 742 W/m 15,1 km/h (3 Bft) 98,17 %
14.05.2023 16:00 23,4 C 25,7 C 18,3 C 46 % 1015,3 hPa 0,0 l/m 0,97 h 0,00 h 532 W/m 15,2 km/h (3 Bft) 97,80 %
14.05.2023 17:00 22,3 C 22,9 C 17,7 C 50 % 1015,0 hPa 0,0 l/m 0,77 h 0,00 h 303 W/m 16,0 km/h (3 Bft) 98,20 %
14.05.2023 18:00 21,3 C 21,1 C 16,6 C 53 % 1014,9 hPa 0,0 l/m 0,20 h 0,00 h 188 W/m 15,0 km/h (3 Bft) 96,45 %
14.05.2023 19:00 20,4 C 19,9 C 15,7 C 56 % 1014,9 hPa 0,0 l/m 0,20 h 0,00 h 106 W/m 9,1 km/h (2 Bft) 97,78 %
14.05.2023 20:00 19,4 C 18,0 C 14,2 C 60 % 1015,1 hPa 0,0 l/m 0,00 h 0,00 h 28 W/m 4,2 km/h (1 Bft) 97,79 %
14.05.2023 21:00 18,2 C 16,6 C 12,9 C 65 % 1015,2 hPa 0,0 l/m 0,00 h 0,00 h 4 W/m 3,4 km/h (1 Bft) 97,91 %
14.05.2023 22:00 17,1 C 15,5 C 11,9 C 72 % 1015,3 hPa 0,0 l/m 0,00 h 0,00 h 0 W/m 4,0 km/h (1 Bft) 96,51 %
14.05.2023 23:00 16,3 C 15,1 C 11,5 C 76 % 1015,2 hPa 0,0 l/m 0,00 h 0,00 h 0 W/m 6,6 km/h (2 Bft) 98,08 %
Min-Datum _ 14.05.23 14.05.23 14.05.23 14.05.23 10.05.23 - - - - 08.05.23 13.05.23
_ Min-Zeit 06:18 05:12 05:30 15:16 00:35 - - - - 00:00 00:02
Minimum _ 9,4 C 8,3 C 5,6 C 42 % 1008,6 hPa - - - - 0,0 km/h (0 Bft) 6,67 %
Max-Datum _ 13.05.23 13.05.23 13.05.23 12.05.23 08.05.23 12.05.23 10.05.23 10.05.23 08.05.23 13.05.23 08.05.23
_ Max-Zeit 14:44 13:50 12:34 08:10 09:46 03:10 14:15 00:00 13:02 13:38 00:28
Maximum _ 25,2 C 33,3 C 25,0 C 100 % 1021,7 hPa 2,2 l/m 0,08 h 0,08 h 1109 W/m 35,4 km/h
O-NO (5 Bft)
100,00 %
Durchschnitt _ 16,0 C 16,1 C 11,9 C 85 % 1016,2 hPa #14,6 l/m #32:12 h #22:41 h 252 W/m 6,6 km/h (2 Bft) 97,88 %
© 2023 W. Hausmann